Great Falls, MT

7:49 PM MDT on March 28, 2015 (GMT -0600)
Great Falls International | | Change Station
CLOSE
Current Station
Airport
Location: Great Falls,
Elevation: 3658 ft
Nearby Weather Stations
Active Advisory: High Wind Warning Active Notice: Record Report, Local Storm Report

Elev 3658 ft 47.47 °N, 111.38 °W | Updated 56 minutes ago

Overcast
Overcast
49 °F
Feels Like 49 °F
N
29
Wind Variable Wind from West
Gusts 36 mph

Today
High -- | Low -- °F
--% Chance of Precip.
Yesterday
High -- | Low -- °F
Precip. -- in
7:12 AM 7:49 PM
Waxing Gibbous, 67% visible
Pressure 30.01 in
Visibility 10.0 miles
Clouds Overcast 5000 ft
Dew Point 25 °F
Humidity 39%
Rainfall 0.00 in
Snow Depth Not available.
UV 0 out of 12
Pollen 9.20 out of 12
Air Quality Not available.
Flu Activity Not available.
METAR KGTF 290053Z 28025G31KT 10SM -RA OVC050 09/M04 A2999 RMK AO2 PK WND 27037/0012 RAB49 PRESRR SLP162 P0000 T00941039 $

More Conditions Fewer Conditions

Pressure 30.01 in
Visibility 10.0 miles
Clouds Overcast 5000 ft
Dew Point 25 °F
Humidity 39%
Rainfall 0.00 in
Snow Depth Not available.
UV 0 out of 12
Pollen 9.20 out of 12
Air Quality Not available.
Flu Activity Not available.
METAR KGTF 290053Z 28025G31KT 10SM -RA OVC050 09/M04 A2999 RMK AO2 PK WND 27037/0012 RAB49 PRESRR SLP162 P0000 T00941039 $

More Conditions Fewer Conditions

10-Day Weather Forecast

Almanac

Astronomy

Mar. 28, 2015 Rise Set
Actual Time
Civil Twilight
Nautical Twilight
Astronomical Twilight
Moon
Length of Visible Light
Length of Day
Tomorrow will be .
, % of the Moon is Illuminated

Today's Extremes

State Highs State Lows

Community

WunderPhotos

Upload Photos

1,809,149 photos uploaded!

WunderBlogs® & News

Nearby

Air Quality

  Air Quality AQ Index Pollutant
Not available.

Snow Depth

Station Depth Elevation

Earthquake Activity

City Distance Mag. Time & Date
Minimum magnitude displayed is 2.5.

Coastal Water Temperatures

Place Temperature

Stations

Nearby Weather Stations

Station Location Temp. Windchill Dew Point Humidity Wind Precip. Elev Updated Type
                   
High Wind Warning
Statement as of 2:38 PM MDT on March 28, 2015

... High Wind Warning remains in effect until
9 PM MDT this evening...

A High Wind Warning remains in effect until
9 PM MDT this evening.

* Timing and main impact: strong west winds will continue into the
early evening hours. Travel will be difficult for those driving
high profile vehicles.

* Winds: west winds 35 to 45 mph... with gusts near 65 mph.
Isolated higher gusts near 75 mph are also possible.

* Other impacts: poor visibilities in blowing dust and power
outages are possible.

* Locations affected include: all of north central and southwest
Montana.

Precautionary/preparedness actions...

A High Wind Warning means a hazardous high wind event is expected
or occurring. Sustained wind speeds of at least 40 mph or gusts
of 58 mph or more can lead to property damage.